SAS15L ESSA-EKCH
Flight info
| Callsign | SAS15L |
|---|---|
| Flight time | 0h 54m |
| Altitude | 36000 |
| Route | PETEV N872 ELPAX DCT TOKSI N872 ERNOV |
| Aircraft | A320/M-SDE3FGHIRWY/LB1 |
Departure
| Time | 2026-05-04 11:51 |
|---|---|
| Airport | Stockholm-Arlanda Airport (ESSA) |
Arrival
| Time | 2026-05-04 12:46 |
|---|---|
| Airport | Copenhagen Kastrup Airport (EKCH) |
| Time | Latitude | Longitude | Altitude | Speed | Heading |
|---|---|---|---|---|---|
| 2026-05-04 11:13 | 59.65396 | 17.93514 | 110 ft | 0 kts | 76° |
| 2026-05-04 11:40 | 59.65396 | 17.93509 | 112 ft | 1 kts | 76° |
| 2026-05-04 11:41 | 59.65391 | 17.93475 | 110 ft | 3 kts | 70° |
| 2026-05-04 11:41 | 59.65383 | 17.93440 | 111 ft | 3 kts | 58° |
| 2026-05-04 11:41 | 59.65372 | 17.93410 | 110 ft | 3 kts | 36° |
| 2026-05-04 11:41 | 59.65357 | 17.93395 | 112 ft | 2 kts | 355° |
| 2026-05-04 11:42 | 59.65351 | 17.93396 | 112 ft | 0 kts | 346° |
| 2026-05-04 11:44 | 59.65361 | 17.93391 | 109 ft | 6 kts | 346° |
| 2026-05-04 11:45 | 59.65427 | 17.93358 | 111 ft | 10 kts | 346° |
| 2026-05-04 11:45 | 59.65479 | 17.93345 | 112 ft | 7 kts | 3° |
| 2026-05-04 11:45 | 59.65524 | 17.93337 | 111 ft | 8 kts | 346° |
| 2026-05-04 11:45 | 59.65581 | 17.93310 | 110 ft | 9 kts | 346° |
| 2026-05-04 11:46 | 59.65608 | 17.93256 | 109 ft | 5 kts | 275° |
| 2026-05-04 11:46 | 59.65602 | 17.93183 | 109 ft | 7 kts | 256° |
| 2026-05-04 11:46 | 59.65588 | 17.93073 | 108 ft | 10 kts | 255° |
| 2026-05-04 11:46 | 59.65569 | 17.92917 | 108 ft | 13 kts | 256° |
| 2026-05-04 11:47 | 59.65543 | 17.92711 | 106 ft | 17 kts | 255° |
| 2026-05-04 11:47 | 59.65540 | 17.92538 | 104 ft | 11 kts | 311° |
| 2026-05-04 11:47 | 59.65626 | 17.92480 | 103 ft | 14 kts | 345° |
| 2026-05-04 11:47 | 59.65726 | 17.92430 | 105 ft | 8 kts | 346° |
| 2026-05-04 11:48 | 59.65778 | 17.92426 | 105 ft | 10 kts | 8° |
| 2026-05-04 11:48 | 59.65864 | 17.92457 | 107 ft | 15 kts | 10° |
| 2026-05-04 11:48 | 59.65981 | 17.92499 | 109 ft | 19 kts | 10° |
| 2026-05-04 11:48 | 59.66127 | 17.92553 | 112 ft | 22 kts | 10° |
| 2026-05-04 11:49 | 59.66262 | 17.92601 | 116 ft | 18 kts | 10° |
| 2026-05-04 11:49 | 59.66369 | 17.92639 | 120 ft | 14 kts | 10° |
| 2026-05-04 11:49 | 59.66449 | 17.92657 | 121 ft | 10 kts | 354° |
| 2026-05-04 11:49 | 59.66519 | 17.92614 | 124 ft | 13 kts | 340° |
| 2026-05-04 11:50 | 59.66606 | 17.92540 | 123 ft | 12 kts | 318° |
| 2026-05-04 11:50 | 59.66622 | 17.92398 | 124 ft | 7 kts | 271° |
| 2026-05-04 11:50 | 59.66575 | 17.92354 | 123 ft | 10 kts | 190° |
| 2026-05-04 11:50 | 59.66429 | 17.92300 | 121 ft | 48 kts | 191° |
| 2026-05-04 11:51 | 59.65850 | 17.92091 | 113 ft | 117 kts | 191° |
| 2026-05-04 11:51 | 59.64876 | 17.91752 | 227 ft | 157 kts | 191° |
| 2026-05-04 11:51 | 59.63771 | 17.91416 | 817 ft | 169 kts | 191° |
| 2026-05-04 11:51 | 59.62558 | 17.91056 | 1529 ft | 178 kts | 192° |
| 2026-05-04 11:52 | 59.61345 | 17.90391 | 2056 ft | 190 kts | 217° |
| 2026-05-04 11:52 | 59.60511 | 17.88312 | 2460 ft | 207 kts | 241° |
| 2026-05-04 11:52 | 59.59791 | 17.85774 | 3284 ft | 213 kts | 242° |
| 2026-05-04 11:52 | 59.59053 | 17.83194 | 4182 ft | 217 kts | 242° |
| 2026-05-04 11:53 | 59.58313 | 17.80567 | 5002 ft | 227 kts | 244° |
| 2026-05-04 11:53 | 59.57576 | 17.77694 | 5547 ft | 247 kts | 245° |
| 2026-05-04 11:53 | 59.56788 | 17.74636 | 6419 ft | 253 kts | 241° |
| 2026-05-04 11:53 | 59.55682 | 17.71890 | 7316 ft | 257 kts | 230° |
| 2026-05-04 11:55 | 59.46046 | 17.52689 | 12571 ft | 309 kts | 226° |
| 2026-05-04 11:55 | 59.44462 | 17.49802 | 13423 ft | 311 kts | 226° |
| 2026-05-04 11:56 | 59.42872 | 17.46894 | 14166 ft | 314 kts | 226° |
| 2026-05-04 11:56 | 59.41264 | 17.43956 | 14909 ft | 316 kts | 226° |
| 2026-05-04 11:56 | 59.39649 | 17.41004 | 15652 ft | 318 kts | 226° |
| 2026-05-04 11:56 | 59.38024 | 17.38031 | 16385 ft | 321 kts | 226° |
| 2026-05-04 11:57 | 59.36387 | 17.35029 | 17124 ft | 323 kts | 226° |
| 2026-05-04 11:57 | 59.34734 | 17.32001 | 17842 ft | 326 kts | 226° |
| 2026-05-04 11:57 | 59.33091 | 17.28992 | 18466 ft | 329 kts | 226° |
| 2026-05-04 11:57 | 59.31415 | 17.25924 | 19048 ft | 331 kts | 226° |
| 2026-05-04 11:58 | 59.29722 | 17.22829 | 19634 ft | 335 kts | 226° |
| 2026-05-04 11:58 | 59.28007 | 17.19707 | 20226 ft | 338 kts | 226° |
| 2026-05-04 11:58 | 59.26275 | 17.16561 | 20810 ft | 341 kts | 226° |
| 2026-05-04 11:58 | 59.24533 | 17.13395 | 21392 ft | 344 kts | 226° |
| 2026-05-04 11:59 | 59.22774 | 17.10204 | 21960 ft | 346 kts | 226° |
| 2026-05-04 11:59 | 59.21000 | 17.06989 | 22527 ft | 349 kts | 226° |
| 2026-05-04 11:59 | 59.19215 | 17.03754 | 23094 ft | 352 kts | 226° |
| 2026-05-04 11:59 | 59.17409 | 17.00488 | 23596 ft | 355 kts | 226° |
| 2026-05-04 12:00 | 59.15593 | 16.97212 | 24057 ft | 357 kts | 226° |
| 2026-05-04 12:00 | 59.13768 | 16.93924 | 24539 ft | 359 kts | 226° |
| 2026-05-04 12:00 | 59.11927 | 16.90613 | 24995 ft | 361 kts | 226° |
| 2026-05-04 12:00 | 59.10073 | 16.87288 | 25445 ft | 363 kts | 225° |
| 2026-05-04 12:01 | 59.08841 | 16.85082 | 25738 ft | 365 kts | 225° |
| 2026-05-04 12:01 | 59.06968 | 16.81731 | 26143 ft | 367 kts | 225° |
| 2026-05-04 12:02 | 58.95448 | 16.61212 | 28619 ft | 382 kts | 225° |
| 2026-05-04 12:03 | 58.93477 | 16.57726 | 28999 ft | 385 kts | 225° |
| 2026-05-04 12:03 | 58.91493 | 16.54224 | 29389 ft | 387 kts | 225° |
| 2026-05-04 12:03 | 58.89487 | 16.50730 | 29771 ft | 390 kts | 224° |
| 2026-05-04 12:03 | 58.87437 | 16.47352 | 30081 ft | 393 kts | 223° |
| 2026-05-04 12:04 | 58.85319 | 16.44000 | 30368 ft | 395 kts | 222° |
| 2026-05-04 12:04 | 58.83171 | 16.40663 | 30631 ft | 397 kts | 222° |
| 2026-05-04 12:04 | 58.81007 | 16.37310 | 30936 ft | 399 kts | 222° |
| 2026-05-04 12:04 | 58.78844 | 16.33944 | 31232 ft | 401 kts | 222° |
| 2026-05-04 12:05 | 58.76676 | 16.30557 | 31581 ft | 401 kts | 222° |
| 2026-05-04 12:05 | 58.74517 | 16.27175 | 31984 ft | 400 kts | 222° |
| 2026-05-04 12:05 | 58.72365 | 16.23795 | 32395 ft | 399 kts | 222° |
| 2026-05-04 12:05 | 58.70227 | 16.20430 | 32795 ft | 398 kts | 223° |
| 2026-05-04 12:06 | 58.68086 | 16.17062 | 33201 ft | 397 kts | 223° |
| 2026-05-04 12:06 | 58.65950 | 16.13708 | 33599 ft | 396 kts | 223° |
| 2026-05-04 12:06 | 58.63811 | 16.10362 | 33951 ft | 396 kts | 222° |
| 2026-05-04 12:06 | 58.61680 | 16.07040 | 34254 ft | 396 kts | 222° |
| 2026-05-04 12:07 | 58.59540 | 16.03710 | 34507 ft | 396 kts | 222° |
| 2026-05-04 12:07 | 58.57392 | 16.00367 | 34770 ft | 397 kts | 222° |
| 2026-05-04 12:07 | 58.55248 | 15.97036 | 35028 ft | 398 kts | 222° |
| 2026-05-04 12:07 | 58.53097 | 15.93701 | 35297 ft | 398 kts | 222° |
| 2026-05-04 12:08 | 58.50940 | 15.90364 | 35558 ft | 399 kts | 222° |
| 2026-05-04 12:08 | 58.48774 | 15.87016 | 35719 ft | 400 kts | 222° |
| 2026-05-04 12:08 | 58.44481 | 15.80406 | 35756 ft | 395 kts | 222° |
| 2026-05-04 12:09 | 58.40205 | 15.73848 | 35755 ft | 394 kts | 222° |
| 2026-05-04 12:09 | 58.35975 | 15.67359 | 35757 ft | 394 kts | 222° |
| 2026-05-04 12:10 | 58.31690 | 15.60800 | 35745 ft | 395 kts | 222° |
| 2026-05-04 12:10 | 58.27394 | 15.54270 | 35747 ft | 396 kts | 222° |
| 2026-05-04 12:11 | 58.23089 | 15.47747 | 35751 ft | 396 kts | 222° |
| 2026-05-04 12:11 | 58.18789 | 15.41236 | 35753 ft | 396 kts | 222° |
| 2026-05-04 12:12 | 58.14486 | 15.34733 | 35748 ft | 396 kts | 222° |
| 2026-05-04 12:12 | 58.10170 | 15.28264 | 35721 ft | 396 kts | 222° |
| 2026-05-04 12:14 | 57.92851 | 15.02455 | 35745 ft | 397 kts | 221° |
| 2026-05-04 12:15 | 57.88513 | 14.96055 | 35756 ft | 397 kts | 221° |
| 2026-05-04 12:15 | 57.84196 | 14.89687 | 35756 ft | 397 kts | 221° |
| 2026-05-04 12:16 | 57.79852 | 14.83294 | 35759 ft | 397 kts | 221° |
| 2026-05-04 12:16 | 57.75504 | 14.76921 | 35759 ft | 397 kts | 221° |
| 2026-05-04 12:17 | 57.71151 | 14.70567 | 35768 ft | 397 kts | 221° |
| 2026-05-04 12:17 | 57.66795 | 14.64231 | 35774 ft | 397 kts | 221° |
| 2026-05-04 12:18 | 57.62424 | 14.57890 | 35750 ft | 398 kts | 221° |
| 2026-05-04 12:18 | 57.58047 | 14.51551 | 35757 ft | 399 kts | 221° |
| 2026-05-04 12:19 | 57.53656 | 14.45221 | 35772 ft | 399 kts | 221° |
| 2026-05-04 12:19 | 57.49254 | 14.38903 | 35782 ft | 400 kts | 221° |
| 2026-05-04 12:20 | 57.44855 | 14.32599 | 35790 ft | 400 kts | 221° |
| 2026-05-04 12:20 | 57.40442 | 14.26300 | 35801 ft | 400 kts | 221° |
| 2026-05-04 12:21 | 57.36026 | 14.20019 | 35779 ft | 400 kts | 221° |
| 2026-05-04 12:21 | 57.31608 | 14.13742 | 35786 ft | 400 kts | 221° |
| 2026-05-04 12:22 | 57.29391 | 14.10600 | 35578 ft | 401 kts | 221° |
| 2026-05-04 12:22 | 57.27179 | 14.07478 | 35332 ft | 401 kts | 221° |
| 2026-05-04 12:22 | 57.24962 | 14.04357 | 35100 ft | 400 kts | 221° |
| 2026-05-04 12:22 | 57.22750 | 14.01238 | 34856 ft | 400 kts | 221° |
| 2026-05-04 12:23 | 57.20545 | 13.98130 | 34613 ft | 399 kts | 221° |
| 2026-05-04 12:23 | 57.18342 | 13.95030 | 34380 ft | 398 kts | 221° |
| 2026-05-04 12:23 | 57.16172 | 13.91981 | 34142 ft | 395 kts | 221° |
| 2026-05-04 12:23 | 57.13964 | 13.88884 | 33887 ft | 393 kts | 221° |
| 2026-05-04 12:24 | 57.11824 | 13.85888 | 33603 ft | 390 kts | 221° |
| 2026-05-04 12:24 | 57.09677 | 13.82889 | 33111 ft | 385 kts | 221° |
| 2026-05-04 12:24 | 57.07555 | 13.79933 | 32596 ft | 381 kts | 221° |
| 2026-05-04 12:24 | 57.05451 | 13.77008 | 32063 ft | 378 kts | 221° |
| 2026-05-04 12:25 | 57.03367 | 13.74110 | 31541 ft | 374 kts | 221° |
| 2026-05-04 12:25 | 57.01296 | 13.71233 | 31041 ft | 371 kts | 221° |
| 2026-05-04 12:25 | 56.99246 | 13.68391 | 30541 ft | 368 kts | 221° |
| 2026-05-04 12:25 | 56.97209 | 13.65572 | 30047 ft | 365 kts | 221° |
| 2026-05-04 12:26 | 56.95187 | 13.62776 | 29523 ft | 362 kts | 221° |
| 2026-05-04 12:26 | 56.93194 | 13.60022 | 29044 ft | 357 kts | 221° |
| 2026-05-04 12:26 | 56.91225 | 13.57308 | 28542 ft | 352 kts | 221° |
| 2026-05-04 12:26 | 56.89285 | 13.54644 | 28136 ft | 346 kts | 221° |
| 2026-05-04 12:27 | 56.87370 | 13.52016 | 27702 ft | 341 kts | 221° |
| 2026-05-04 12:27 | 56.85489 | 13.49437 | 27298 ft | 336 kts | 221° |
| 2026-05-04 12:27 | 56.83657 | 13.46923 | 26874 ft | 332 kts | 221° |
| 2026-05-04 12:27 | 56.81823 | 13.44406 | 26480 ft | 328 kts | 221° |
| 2026-05-04 12:28 | 56.79987 | 13.41893 | 26068 ft | 323 kts | 221° |
| 2026-05-04 12:28 | 56.78220 | 13.39484 | 25685 ft | 320 kts | 221° |
| 2026-05-04 12:28 | 56.76447 | 13.37069 | 25214 ft | 318 kts | 221° |
| 2026-05-04 12:28 | 56.74649 | 13.34608 | 24428 ft | 327 kts | 221° |
| 2026-05-04 12:29 | 56.72832 | 13.32126 | 23907 ft | 327 kts | 221° |
| 2026-05-04 12:29 | 56.71008 | 13.29634 | 23423 ft | 326 kts | 221° |
| 2026-05-04 12:29 | 56.69120 | 13.27355 | 22915 ft | 328 kts | 210° |
| 2026-05-04 12:29 | 56.66957 | 13.25943 | 22386 ft | 331 kts | 204° |
| 2026-05-04 12:30 | 56.64783 | 13.24669 | 21818 ft | 327 kts | 204° |
| 2026-05-04 12:30 | 56.62621 | 13.23421 | 20992 ft | 324 kts | 204° |
| 2026-05-04 12:30 | 56.60479 | 13.22190 | 20212 ft | 321 kts | 204° |
| 2026-05-04 12:30 | 56.58364 | 13.20979 | 19462 ft | 318 kts | 204° |
| 2026-05-04 12:31 | 56.56243 | 13.19759 | 19012 ft | 318 kts | 204° |
| 2026-05-04 12:31 | 56.54141 | 13.18546 | 18614 ft | 316 kts | 204° |
| 2026-05-04 12:31 | 56.52048 | 13.17338 | 18223 ft | 315 kts | 204° |
| 2026-05-04 12:31 | 56.50002 | 13.16153 | 17800 ft | 313 kts | 204° |
| 2026-05-04 12:32 | 56.47907 | 13.14940 | 17374 ft | 311 kts | 204° |
| 2026-05-04 12:32 | 56.43801 | 13.12589 | 16580 ft | 308 kts | 204° |
| 2026-05-04 12:32 | 56.41778 | 13.11430 | 16106 ft | 303 kts | 204° |
| 2026-05-04 12:33 | 56.39776 | 13.10281 | 15379 ft | 300 kts | 204° |
| 2026-05-04 12:33 | 56.37818 | 13.09158 | 14733 ft | 297 kts | 204° |
| 2026-05-04 12:33 | 56.35852 | 13.08031 | 14180 ft | 298 kts | 204° |
| 2026-05-04 12:33 | 56.33886 | 13.06904 | 13859 ft | 295 kts | 203° |
| 2026-05-04 12:34 | 56.31938 | 13.05793 | 13413 ft | 291 kts | 203° |
| 2026-05-04 12:34 | 56.30015 | 13.04700 | 12677 ft | 289 kts | 203° |
| 2026-05-04 12:34 | 56.28108 | 13.03612 | 11965 ft | 287 kts | 203° |
| 2026-05-04 12:34 | 56.26206 | 13.02528 | 11276 ft | 285 kts | 203° |
| 2026-05-04 12:35 | 56.24326 | 13.01460 | 10596 ft | 283 kts | 203° |
| 2026-05-04 12:35 | 56.22475 | 13.00417 | 10091 ft | 275 kts | 203° |
| 2026-05-04 12:35 | 56.20658 | 12.99392 | 9530 ft | 274 kts | 203° |
| 2026-05-04 12:35 | 56.18850 | 12.98366 | 9160 ft | 272 kts | 203° |
| 2026-05-04 12:36 | 56.17052 | 12.97343 | 8777 ft | 270 kts | 203° |
| 2026-05-04 12:36 | 56.15265 | 12.96328 | 8358 ft | 269 kts | 203° |
| 2026-05-04 12:36 | 56.13486 | 12.95314 | 7941 ft | 268 kts | 202° |
| 2026-05-04 12:36 | 56.11710 | 12.94305 | 7534 ft | 267 kts | 202° |
| 2026-05-04 12:37 | 56.09936 | 12.93306 | 7153 ft | 266 kts | 202° |
| 2026-05-04 12:37 | 56.08176 | 12.92319 | 6762 ft | 265 kts | 202° |
| 2026-05-04 12:37 | 56.06431 | 12.91342 | 6593 ft | 264 kts | 203° |
| 2026-05-04 12:37 | 56.04674 | 12.90350 | 6473 ft | 265 kts | 203° |
| 2026-05-04 12:38 | 56.02920 | 12.89358 | 6353 ft | 265 kts | 203° |
| 2026-05-04 12:38 | 56.01165 | 12.88371 | 6228 ft | 264 kts | 202° |
| 2026-05-04 12:38 | 55.99412 | 12.87388 | 6092 ft | 263 kts | 202° |
| 2026-05-04 12:38 | 55.97667 | 12.86406 | 5967 ft | 264 kts | 202° |
| 2026-05-04 12:39 | 55.95920 | 12.85425 | 5717 ft | 261 kts | 202° |
| 2026-05-04 12:39 | 55.94201 | 12.84467 | 5333 ft | 258 kts | 202° |
| 2026-05-04 12:39 | 55.92497 | 12.83519 | 4964 ft | 255 kts | 202° |
| 2026-05-04 12:39 | 55.90825 | 12.82592 | 4565 ft | 254 kts | 202° |
| 2026-05-04 12:40 | 55.89147 | 12.81659 | 4205 ft | 251 kts | 202° |
| 2026-05-04 12:40 | 55.87511 | 12.80752 | 4077 ft | 241 kts | 203° |
| 2026-05-04 12:40 | 55.85944 | 12.79885 | 3885 ft | 232 kts | 202° |
| 2026-05-04 12:40 | 55.84353 | 12.79446 | 3741 ft | 235 kts | 184° |
| 2026-05-04 12:41 | 55.82735 | 12.79973 | 3567 ft | 241 kts | 164° |
| 2026-05-04 12:41 | 55.81171 | 12.81127 | 3243 ft | 242 kts | 161° |
| 2026-05-04 12:41 | 55.79649 | 12.82284 | 3185 ft | 235 kts | 161° |
| 2026-05-04 12:41 | 55.78160 | 12.83422 | 3125 ft | 232 kts | 161° |
| 2026-05-04 12:42 | 55.76686 | 12.84548 | 3043 ft | 230 kts | 160° |
| 2026-05-04 12:42 | 55.75203 | 12.85406 | 2969 ft | 225 kts | 176° |
| 2026-05-04 12:42 | 55.73689 | 12.85198 | 2896 ft | 216 kts | 206° |
| 2026-05-04 12:42 | 55.72514 | 12.83681 | 2819 ft | 207 kts | 237° |
| 2026-05-04 12:43 | 55.71748 | 12.81567 | 2666 ft | 201 kts | 238° |
| 2026-05-04 12:43 | 55.70817 | 12.79701 | 2327 ft | 207 kts | 228° |
| 2026-05-04 12:43 | 55.69762 | 12.77994 | 1995 ft | 200 kts | 226° |
| 2026-05-04 12:43 | 55.68767 | 12.76445 | 1733 ft | 182 kts | 225° |
| 2026-05-04 12:44 | 55.67854 | 12.75025 | 1474 ft | 168 kts | 227° |
| 2026-05-04 12:44 | 55.67010 | 12.73712 | 1247 ft | 156 kts | 227° |
| 2026-05-04 12:44 | 55.66225 | 12.72492 | 1044 ft | 145 kts | 227° |
| 2026-05-04 12:44 | 55.65498 | 12.71359 | 842 ft | 138 kts | 226° |
| 2026-05-04 12:45 | 55.64784 | 12.70249 | 655 ft | 136 kts | 227° |
| 2026-05-04 12:45 | 55.64090 | 12.69170 | 477 ft | 134 kts | 226° |
| 2026-05-04 12:45 | 55.63393 | 12.68091 | 266 ft | 135 kts | 226° |
| 2026-05-04 12:45 | 55.62695 | 12.66990 | 103 ft | 136 kts | 226° |
| 2026-05-04 12:46 | 55.62008 | 12.65937 | 19 ft | 125 kts | 226° |
| 2026-05-04 12:46 | 55.61537 | 12.65205 | 17 ft | 48 kts | 221° |
| 2026-05-04 12:46 | 55.61335 | 12.64887 | 18 ft | 28 kts | 225° |
| 2026-05-04 12:46 | 55.61277 | 12.64731 | 19 ft | 21 kts | 245° |
| 2026-05-04 12:47 | 55.61221 | 12.64455 | 19 ft | 13 kts | 251° |
| 2026-05-04 12:47 | 55.61189 | 12.64288 | 18 ft | 16 kts | 251° |
| 2026-05-04 12:47 | 55.61210 | 12.64124 | 17 ft | 15 kts | 325° |
| 2026-05-04 12:47 | 55.61317 | 12.64155 | 18 ft | 13 kts | 32° |
| 2026-05-04 12:48 | 55.61384 | 12.64232 | 18 ft | 11 kts | 33° |
| 2026-05-04 12:48 | 55.61445 | 12.64302 | 18 ft | 10 kts | 33° |
| 2026-05-04 12:48 | 55.61500 | 12.64365 | 19 ft | 9 kts | 33° |
| 2026-05-04 12:48 | 55.61549 | 12.64421 | 17 ft | 8 kts | 33° |
| 2026-05-04 12:49 | 55.61603 | 12.64484 | 17 ft | 13 kts | 33° |
| 2026-05-04 12:49 | 55.61673 | 12.64564 | 17 ft | 9 kts | 29° |
| 2026-05-04 12:49 | 55.61710 | 12.64570 | 17 ft | 8 kts | 352° |
| 2026-05-04 12:49 | 55.61809 | 12.64536 | 17 ft | 15 kts | 349° |
| 2026-05-04 12:50 | 55.61926 | 12.64497 | 17 ft | 19 kts | 349° |
| 2026-05-04 12:50 | 55.62060 | 12.64449 | 17 ft | 21 kts | 348° |
| 2026-05-04 12:50 | 55.62133 | 12.64430 | 19 ft | 13 kts | 351° |
| 2026-05-04 12:50 | 55.62225 | 12.64400 | 16 ft | 14 kts | 349° |
| 2026-05-04 12:51 | 55.62312 | 12.64413 | 17 ft | 7 kts | 14° |
| 2026-05-04 12:51 | 55.62353 | 12.64432 | 17 ft | 6 kts | 15° |
| 2026-05-04 12:51 | 55.62416 | 12.64462 | 17 ft | 13 kts | 15° |
| 2026-05-04 12:51 | 55.62483 | 12.64486 | 17 ft | 6 kts | 352° |
| 2026-05-04 12:52 | 55.62510 | 12.64436 | 17 ft | 7 kts | 303° |
| 2026-05-04 12:52 | 55.62548 | 12.64334 | 17 ft | 13 kts | 303° |
| 2026-05-04 12:52 | 55.62608 | 12.64269 | 17 ft | 11 kts | 19° |
| 2026-05-04 12:52 | 55.62661 | 12.64313 | 17 ft | 4 kts | 21° |
| 2026-05-04 12:53 | 55.62681 | 12.64339 | 19 ft | 3 kts | 62° |
| 2026-05-04 12:53 | 55.62675 | 12.64393 | 19 ft | 4 kts | 102° |
| 2026-05-04 12:53 | 55.62671 | 12.64427 | 18 ft | 2 kts | 101° |
| 2026-05-04 12:53 | 55.62670 | 12.64436 | 17 ft | 0 kts | 101° |